Pagrindinis puslapis
METAR-TAF:

METAR-TAF

Oro uostai :

Kamišlis, Sirija

platuma: 37-03N, ilguma: 041-13E, Aukštis: 455 m

Dabartinis oras

Ataskaita buvo paskelbta 3 valandos ir 5 minutes, ne 04:00 UTC
Vėjas 6 kt iš Šiaurės/Šiaurės Vakarų
Temperatūra 26°C
Drėgmė 18%
Slėgis 1011 hPa
Matomumas: 8000 m

METAR: OSKL 140400Z 33006KT 8000 26/00 Q1011

Laikas: 10:05 (07:05 UTC)


TAF: trūkstamas

Orai ataskaitas ir orų prognozės (METAR, TAF).

turimą stotys yra geltonos ir raudonos taškus žemėlapyje.

Perkelti pele per norėdami pamatyti stoties vardą.

Tada spustelėkite, norėdami matyti oro stebėjimo ir prognozės.

Norėdami pakeisti žemėlapį: spustelėkite ant žalios mygtukų su juodo kryžiaus žemyn,; žalią mygtuką su brūkšneliu, jei norite nutolinti; arba žalių rodyklių gretimoms žemėlapius.


METAR-TAF: